Time;durP1;ratioP1;P1;durP2;ratioP2;P2;SDS_P1;SDS_P2;PMS_P1;PMS_P2;Temp;Humidity;BMP_temperature;BMP_pressure;BME280_temperature;BME280_humidity;BME280_pressure;Samples;Min_cycle;Max_cycle;Signal;HPM_P1;HPM_P2
2022/09/10 00:00:26;;;;;;;0.00;0.00;;;15.10;99.90;;;;;;5074910;28;20489;-81
2022/09/10 00:02:52;;;;;;;0.00;0.00;;;15.10;99.90;;;;;;5057851;28;20424;-81
2022/09/10 00:05:17;;;;;;;0.00;0.00;;;15.10;99.90;;;;;;5075133;28;20040;-81
2022/09/10 00:07:43;;;;;;;0.00;0.00;;;15.00;99.90;;;;;;5058220;28;20143;-81
2022/09/10 00:10:10;;;;;;;0.00;0.00;;;15.10;99.90;;;;;;5058131;28;20481;-81
2022/09/10 00:12:35;;;;;;;0.00;0.00;;;15.20;99.90;;;;;;5074461;28;20051;-81
2022/09/10 00:15:03;;;;;;;0.00;0.00;;;15.10;99.90;;;;;;5058357;28;20412;-81
2022/09/10 00:17:30;;;;;;;0.00;0.00;;;15.10;99.90;;;;;;5057627;28;20051;-81
2022/09/10 00:19:58;;;;;;;0.00;0.00;;;15.20;99.90;;;;;;5074501;28;20048;-81
2022/09/10 00:22:24;;;;;;;0.00;0.00;;;15.20;99.90;;;;;;5074441;28;20049;-81
2022/09/10 00:24:54;;;;;;;0.00;0.00;;;15.10;99.90;;;;;;5074340;28;20503;-81
2022/09/10 00:27:20;;;;;;;0.00;0.00;;;15.20;99.90;;;;;;5058413;28;20051;-81
2022/09/10 00:29:45;;;;;;;0.10;0.10;;;15.10;99.90;;;;;;5074408;28;20075;-81
2022/09/10 00:32:11;;;;;;;0.08;0.08;;;15.10;99.90;;;;;;5074355;28;20087;-81
2022/09/10 00:34:37;;;;;;;0.03;0.03;;;15.10;99.90;;;;;;5057211;28;20088;-82
2022/09/10 00:37:03;;;;;;;0.00;0.00;;;15.20;99.90;;;;;;5056749;28;20048;-81
2022/09/10 00:39:28;;;;;;;0.03;0.00;;;15.10;99.90;;;;;;5057756;28;20057;-81
2022/09/10 00:41:54;;;;;;;0.00;0.00;;;15.10;99.90;;;;;;5074107;28;20044;-81
2022/09/10 00:44:38;;;;;;;0.00;0.00;;;15.10;99.90;;;;;;5057867;28;20063;-81
2022/09/10 00:47:18;;;;;;;0.00;0.00;;;15.10;99.90;;;;;;5057387;28;20040;-81
2022/09/10 00:49:48;;;;;;;0.00;0.00;;;15.20;99.90;;;;;;5057783;28;20135;-81
2022/09/10 00:52:15;;;;;;;0.55;0.25;;;15.20;99.90;;;;;;5057424;28;20139;-81
2022/09/10 00:54:43;;;;;;;0.10;0.00;;;15.10;99.90;;;;;;5057117;28;20071;-81
2022/09/10 00:57:13;;;;;;;0.00;0.00;;;15.10;99.90;;;;;;5057077;28;20048;-81
2022/09/10 00:59:47;;;;;;;0.00;0.00;;;15.10;99.90;;;;;;5057503;28;20048;-81
2022/09/10 01:02:13;;;;;;;0.00;0.00;;;15.10;99.90;;;;;;5058222;28;20056;-81
2022/09/10 01:04:40;;;;;;;0.00;0.00;;;15.20;99.90;;;;;;5057170;28;20287;-81
2022/09/10 01:07:08;;;;;;;0.00;0.00;;;15.10;99.90;;;;;;5073562;28;20553;-81
2022/09/10 01:09:35;;;;;;;0.00;0.00;;;15.10;99.90;;;;;;5057293;28;20110;-81
2022/09/10 01:12:14;;;;;;;0.10;0.00;;;15.10;99.90;;;;;;5073456;28;20053;-81
2022/09/10 01:15:14;;;;;;;0.00;0.00;;;15.10;99.90;;;;;;5056772;28;20056;-81
2022/09/10 01:18:12;;;;;;;0.00;0.00;;;15.20;99.90;;;;;;5057008;28;20511;-82
2022/09/10 01:20:50;;;;;;;0.00;0.00;;;15.10;99.90;;;;;;5073633;28;20070;-83
2022/09/10 01:23:46;;;;;;;0.00;0.00;;;15.10;99.90;;;;;;5056824;28;20444;-82
2022/09/10 01:26:44;;;;;;;0.00;0.00;;;15.20;99.90;;;;;;5073628;28;20059;-82
2022/09/10 01:29:25;;;;;;;0.90;0.52;;;15.20;99.90;;;;;;5056484;28;20484;-82
2022/09/10 01:32:05;;;;;;;0.00;0.00;;;15.20;99.90;;;;;;5073369;28;20070;-82
2022/09/10 01:34:57;;;;;;;0.00;0.00;;;15.20;99.90;;;;;;5056847;28;20044;-82
2022/09/10 01:37:28;;;;;;;0.00;0.00;;;15.20;99.90;;;;;;5053943;28;20053;-82
2022/09/10 01:39:55;;;;;;;0.00;0.00;;;15.20;99.90;;;;;;5056336;28;20040;-82
2022/09/10 01:42:26;;;;;;;0.00;0.00;;;15.20;99.90;;;;;;5056748;28;20091;-82
2022/09/10 01:44:54;;;;;;;0.00;0.00;;;15.20;99.90;;;;;;5056344;28;20048;-82
2022/09/10 01:47:50;;;;;;;0.00;0.00;;;15.20;99.90;;;;;;5056896;28;20063;-82
2022/09/10 01:50:28;;;;;;;0.00;0.00;;;15.20;99.90;;;;;;5073171;28;20087;-82
2022/09/10 01:53:23;;;;;;;0.00;0.00;;;15.20;99.90;;;;;;5072491;28;20060;-82
2022/09/10 01:56:10;;;;;;;0.00;0.00;;;15.20;99.90;;;;;;5035473;28;20087;-82
2022/09/10 01:58:42;;;;;;;0.00;0.00;;;15.20;99.90;;;;;;5022662;28;20401;-82
2022/09/10 02:01:15;;;;;;;0.00;0.00;;;15.30;99.90;;;;;;5041877;28;20057;-82
2022/09/10 02:03:44;;;;;;;0.00;0.00;;;15.30;99.90;;;;;;5042105;28;20041;-82
2022/09/10 02:06:15;;;;;;;0.10;0.10;;;15.30;99.90;;;;;;5025431;28;20049;-82
2022/09/10 02:08:44;;;;;;;0.00;0.00;;;15.30;99.90;;;;;;5041925;28;20516;-81
2022/09/10 02:11:13;;;;;;;0.00;0.00;;;15.20;99.90;;;;;;5041692;28;20088;-82
2022/09/10 02:13:41;;;;;;;0.00;0.00;;;15.30;99.90;;;;;;5042179;28;20130;-82
2022/09/10 02:16:29;;;;;;;0.00;0.00;;;15.20;99.90;;;;;;5024982;28;20106;-82
2022/09/10 02:18:57;;;;;;;0.00;0.00;;;15.20;99.90;;;;;;5041735;28;20139;-82
2022/09/10 02:21:23;;;;;;;0.03;0.00;;;15.20;99.90;;;;;;5024296;28;20143;-82
2022/09/10 02:23:56;;;;;;;0.00;0.00;;;15.20;99.90;;;;;;5025192;28;20175;-82
2022/09/10 02:26:22;;;;;;;0.00;0.00;;;15.20;99.90;;;;;;5042333;28;20179;-82
2022/09/10 02:28:51;;;;;;;0.08;0.00;;;15.20;99.90;;;;;;5041430;28;20085;-82
2022/09/10 02:31:17;;;;;;;0.10;0.10;;;15.20;99.90;;;;;;5044476;28;20481;-82
2022/09/10 02:33:43;;;;;;;0.43;0.08;;;15.20;99.90;;;;;;5062632;28;20500;-82
2022/09/10 02:36:09;;;;;;;0.00;0.00;;;15.20;99.90;;;;;;5079090;28;20068;-82
2022/09/10 02:38:35;;;;;;;0.00;0.00;;;15.20;99.90;;;;;;5062786;28;20507;-82
2022/09/10 02:41:00;;;;;;;0.38;0.20;;;15.20;99.90;;;;;;5079273;28;20042;-82
2022/09/10 02:43:27;;;;;;;0.00;0.00;;;15.20;99.90;;;;;;5062890;28;20047;-82
2022/09/10 02:45:57;;;;;;;0.00;0.00;;;15.20;99.90;;;;;;5079492;28;20127;-82
2022/09/10 02:48:25;;;;;;;0.00;0.00;;;15.20;99.90;;;;;;5062252;28;20052;-82
2022/09/10 02:50:51;;;;;;;0.10;0.10;;;15.30;99.90;;;;;;5062548;28;20040;-82
2022/09/10 02:53:17;;;;;;;0.00;0.00;;;15.20;99.90;;;;;;5062946;28;20048;-82
2022/09/10 02:55:47;;;;;;;0.00;0.00;;;15.20;99.90;;;;;;5062570;28;20045;-82
2022/09/10 02:58:15;;;;;;;0.60;0.47;;;15.20;99.90;;;;;;5062170;28;20507;-81
2022/09/10 03:00:41;;;;;;;0.00;0.00;;;15.10;99.90;;;;;;5062203;28;20496;-81
2022/09/10 03:03:07;;;;;;;0.00;0.00;;;15.10;99.90;;;;;;5079103;28;20173;-81
2022/09/10 03:05:37;;;;;;;0.00;0.00;;;15.30;99.90;;;;;;5078950;28;20045;-81
2022/09/10 03:08:05;;;;;;;0.00;0.00;;;15.20;99.90;;;;;;5062959;28;20048;-82
2022/09/10 03:10:31;;;;;;;0.00;0.00;;;15.20;99.90;;;;;;5076146;28;20048;-82
2022/09/10 03:12:57;;;;;;;0.00;0.00;;;15.20;99.90;;;;;;5059294;28;20067;-82
2022/09/10 03:15:22;;;;;;;0.05;0.00;;;15.20;99.90;;;;;;5075627;28;20048;-81
2022/09/10 03:17:48;;;;;;;0.00;0.00;;;15.20;99.90;;;;;;5075667;28;20044;-81
2022/09/10 03:20:14;;;;;;;0.00;0.00;;;15.30;99.90;;;;;;5109636;28;20049;-82
2022/09/10 03:22:40;;;;;;;0.00;0.00;;;15.30;99.90;;;;;;5075633;28;20040;-81
2022/09/10 03:25:06;;;;;;;0.00;0.00;;;15.20;99.90;;;;;;5075672;28;20032;-81
2022/09/10 03:27:32;;;;;;;0.10;0.10;;;15.20;99.90;;;;;;5058818;28;20048;-81
2022/09/10 03:29:59;;;;;;;0.30;0.10;;;15.30;99.90;;;;;;5075441;28;20044;-81
2022/09/10 03:32:25;;;;;;;0.00;0.00;;;15.30;99.90;;;;;;5058786;28;20052;-81
2022/09/10 03:34:50;;;;;;;0.28;0.28;;;15.30;99.90;;;;;;5058451;28;20393;-81
2022/09/10 03:37:16;;;;;;;0.00;0.00;;;15.30;99.90;;;;;;5058199;28;20052;-81
2022/09/10 03:39:42;;;;;;;0.65;0.43;;;15.30;99.90;;;;;;5075187;28;20048;-81
2022/09/10 03:42:08;;;;;;;0.00;0.00;;;15.20;99.90;;;;;;5058749;28;20101;-81
2022/09/10 03:44:34;;;;;;;0.00;0.00;;;15.20;99.90;;;;;;5058526;28;20102;-81
2022/09/10 03:47:00;;;;;;;0.38;0.38;;;15.20;99.90;;;;;;5108983;28;20250;-81
2022/09/10 03:49:26;;;;;;;0.00;0.00;;;15.20;99.90;;;;;;5058385;28;20561;-81
2022/09/10 03:51:52;;;;;;;0.00;0.00;;;15.20;99.90;;;;;;5058864;28;20059;-81
2022/09/10 03:54:19;;;;;;;0.00;0.00;;;15.20;99.90;;;;;;5075280;28;20088;-81
2022/09/10 03:56:45;;;;;;;0.00;0.00;;;15.20;99.90;;;;;;5058159;28;20045;-81
2022/09/10 03:59:13;;;;;;;0.00;0.00;;;15.20;99.90;;;;;;5074919;28;20047;-81
2022/09/10 04:01:40;;;;;;;0.00;0.00;;;15.30;99.90;;;;;;5058413;28;20143;-81
2022/09/10 04:04:07;;;;;;;0.00;0.00;;;15.20;99.90;;;;;;5058119;28;20037;-81
2022/09/10 04:06:34;;;;;;;0.10;0.10;;;15.30;99.90;;;;;;5058356;28;20059;-81
2022/09/10 04:09:00;;;;;;;0.22;0.20;;;15.30;99.90;;;;;;5074675;28;20142;-81
2022/09/10 04:11:26;;;;;;;0.00;0.00;;;15.30;99.90;;;;;;5074586;28;20041;-81
2022/09/10 04:13:55;;;;;;;0.00;0.00;;;15.30;99.90;;;;;;5058041;28;20152;-81
2022/09/10 04:16:22;;;;;;;0.00;0.00;;;15.20;99.90;;;;;;5057766;28;20118;-81
2022/09/10 04:18:49;;;;;;;0.10;0.10;;;15.20;99.90;;;;;;5058047;28;20048;-81
2022/09/10 04:21:16;;;;;;;0.05;0.00;;;15.20;99.90;;;;;;5073779;28;20086;-81
2022/09/10 04:23:42;;;;;;;0.30;0.30;;;15.20;99.90;;;;;;5074162;28;20075;-80
2022/09/10 04:26:16;;;;;;;0.05;0.05;;;15.30;99.90;;;;;;5074558;28;20080;-80
2022/09/10 04:28:43;;;;;;;0.00;0.00;;;15.30;99.90;;;;;;5074345;28;20040;-80
2022/09/10 04:31:09;;;;;;;0.00;0.00;;;15.20;99.90;;;;;;5057976;28;20056;-80
2022/09/10 04:33:34;;;;;;;0.10;0.10;;;15.30;99.90;;;;;;5057646;28;20136;-80
2022/09/10 04:36:00;;;;;;;0.05;0.05;;;15.20;99.90;;;;;;5057690;28;20094;-80
2022/09/10 04:38:29;;;;;;;0.10;0.10;;;15.20;99.90;;;;;;5057303;28;20396;-81
2022/09/10 04:40:56;;;;;;;0.20;0.20;;;15.30;99.90;;;;;;5074109;28;20459;-80
2022/09/10 04:43:24;;;;;;;0.60;0.52;;;15.30;99.90;;;;;;5073640;28;20067;-81
2022/09/10 04:45:51;;;;;;;1.08;0.47;;;15.30;99.90;;;;;;5073942;28;20504;-80
2022/09/10 04:48:17;;;;;;;0.10;0.10;;;15.20;99.90;;;;;;5057439;28;20074;-80
2022/09/10 04:50:43;;;;;;;0.20;0.20;;;15.30;99.90;;;;;;5073894;28;20047;-81
2022/09/10 04:53:09;;;;;;;0.03;0.00;;;15.30;99.90;;;;;;5073287;28;20044;-82
2022/09/10 04:55:38;;;;;;;0.00;0.00;;;15.20;99.90;;;;;;5073903;28;20419;-80
2022/09/10 04:58:04;;;;;;;0.00;0.00;;;15.20;99.90;;;;;;5073839;28;20060;-80
2022/09/10 05:00:30;;;;;;;0.20;0.20;;;15.30;99.90;;;;;;5073914;28;20059;-80
2022/09/10 05:02:56;;;;;;;0.03;0.00;;;15.30;99.90;;;;;;5073278;28;20041;-81
2022/09/10 05:05:22;;;;;;;0.65;0.65;;;15.30;99.90;;;;;;5073306;28;20448;-81
2022/09/10 05:07:47;;;;;;;8.68;1.05;;;15.30;99.90;;;;;;5073483;28;20047;-82
2022/09/10 05:10:14;;;;;;;0.00;0.00;;;15.30;99.90;;;;;;5073490;28;20126;-81
2022/09/10 05:12:40;;;;;;;0.00;0.00;;;15.30;99.90;;;;;;5057079;28;20041;-81
2022/09/10 05:15:06;;;;;;;0.00;0.00;;;15.40;99.90;;;;;;5072798;28;20128;-81
2022/09/10 05:17:32;;;;;;;0.00;0.00;;;15.30;99.90;;;;;;5072635;28;20083;-81
2022/09/10 05:19:59;;;;;;;0.00;0.00;;;15.30;99.90;;;;;;5056391;28;20075;-82
2022/09/10 05:22:24;;;;;;;0.43;0.30;;;15.30;99.90;;;;;;5072955;28;20480;-82
2022/09/10 05:24:50;;;;;;;0.00;0.00;;;15.30;99.90;;;;;;5073139;28;20097;-81
2022/09/10 05:27:16;;;;;;;1.00;0.45;;;15.30;99.90;;;;;;5056624;28;20095;-81
2022/09/10 05:29:42;;;;;;;0.65;0.65;;;15.30;99.90;;;;;;5073184;28;20051;-81
2022/09/10 05:32:12;;;;;;;0.10;0.10;;;15.30;99.90;;;;;;5056228;28;20051;-80
2022/09/10 05:34:38;;;;;;;0.00;0.00;;;15.30;99.90;;;;;;5056743;28;20040;-80
2022/09/10 05:37:04;;;;;;;0.00;0.00;;;15.40;99.90;;;;;;5056374;28;20041;-80
2022/09/10 05:39:30;;;;;;;0.35;0.25;;;15.30;99.90;;;;;;5056332;28;20075;-80
2022/09/10 05:41:56;;;;;;;3.13;0.55;;;15.40;99.90;;;;;;5072687;28;20508;-81
2022/09/10 05:44:21;;;;;;;0.80;0.80;;;15.40;99.90;;;;;;5057109;28;20135;-81
2022/09/10 05:46:47;;;;;;;0.10;0.03;;;15.40;99.90;;;;;;5056873;28;20044;-81
2022/09/10 05:49:14;;;;;;;0.00;0.00;;;15.40;99.90;;;;;;5056297;28;20048;-81
2022/09/10 05:51:40;;;;;;;0.20;0.15;;;15.40;99.90;;;;;;5056079;28;20052;-81
2022/09/10 05:54:06;;;;;;;0.75;0.30;;;15.40;99.90;;;;;;5055710;28;20508;-81
2022/09/10 05:56:31;;;;;;;0.30;0.30;;;15.40;99.90;;;;;;5056656;28;20036;-81
2022/09/10 05:58:57;;;;;;;0.85;0.13;;;15.40;99.90;;;;;;5073216;28;20473;-81
2022/09/10 06:01:23;;;;;;;0.17;0.17;;;15.40;99.90;;;;;;5072309;28;20062;-81
2022/09/10 06:03:49;;;;;;;0.10;0.00;;;15.40;99.90;;;;;;5056066;28;20143;-81
2022/09/10 06:06:15;;;;;;;0.70;0.22;;;15.50;99.90;;;;;;5072417;28;20057;-81
2022/09/10 06:08:42;;;;;;;3.88;0.55;;;15.50;99.90;;;;;;5055690;28;20075;-81
2022/09/10 06:11:09;;;;;;;0.05;0.00;;;15.50;99.90;;;;;;5055715;28;20044;-81
2022/09/10 06:13:38;;;;;;;0.90;0.20;;;15.50;99.90;;;;;;5073018;28;20045;-81
2022/09/10 06:16:06;;;;;;;0.00;0.00;;;15.50;99.90;;;;;;5055781;28;20084;-81
2022/09/10 06:18:32;;;;;;;0.00;0.00;;;15.50;99.90;;;;;;5106346;28;20127;-81
2022/09/10 06:21:06;;;;;;;0.00;0.00;;;15.60;99.90;;;;;;5055841;28;20048;-81
2022/09/10 06:23:32;;;;;;;0.10;0.00;;;15.60;99.90;;;;;;5072950;28;20056;-81
2022/09/10 06:26:03;;;;;;;0.00;0.00;;;15.60;99.90;;;;;;5072412;28;20131;-81
2022/09/10 06:28:30;;;;;;;0.20;0.10;;;15.70;99.90;;;;;;5072409;28;20055;-81
2022/09/10 06:30:56;;;;;;;0.00;0.00;;;15.60;99.90;;;;;;5072598;28;20090;-81
2022/09/10 06:33:22;;;;;;;0.00;0.00;;;15.60;99.90;;;;;;5072488;28;20048;-81
2022/09/10 06:35:56;;;;;;;0.00;0.00;;;15.60;99.90;;;;;;5055468;28;20040;-81
2022/09/10 06:38:22;;;;;;;0.08;0.00;;;15.70;99.90;;;;;;5072415;28;20484;-81
2022/09/10 06:40:56;;;;;;;0.00;0.00;;;15.70;99.90;;;;;;5072354;28;20045;-81
2022/09/10 06:43:24;;;;;;;0.10;0.10;;;15.70;99.90;;;;;;5072723;28;20408;-81
2022/09/10 06:45:51;;;;;;;0.15;0.10;;;15.80;99.90;;;;;;5074631;28;20442;-81
2022/09/10 06:48:26;;;;;;;0.55;0.55;;;15.80;99.90;;;;;;5075848;28;20074;-81
2022/09/10 06:50:52;;;;;;;;;;;15.80;99.90;;;;;;5076794;28;20420;-81
2022/09/10 06:53:20;;;;;;;0.00;0.00;;;15.90;99.90;;;;;;5058960;28;19920;-81
2022/09/10 06:55:50;;;;;;;0.00;0.00;;;16.00;99.90;;;;;;5075749;28;20139;-81
2022/09/10 06:58:20;;;;;;;0.08;0.08;;;16.00;99.90;;;;;;5059342;28;20094;-81
2022/09/10 07:00:46;;;;;;;0.32;0.32;;;16.00;99.90;;;;;;5058951;28;20048;-81
2022/09/10 07:03:14;;;;;;;0.13;0.08;;;16.00;99.90;;;;;;5058953;28;20056;-81
2022/09/10 07:05:41;;;;;;;0.15;0.15;;;16.10;99.90;;;;;;5059174;28;20086;-81
2022/09/10 07:08:07;;;;;;;0.00;0.00;;;16.10;99.90;;;;;;5059403;28;20060;-82
2022/09/10 07:10:33;;;;;;;0.20;0.20;;;16.10;99.90;;;;;;5075767;28;20068;-81
2022/09/10 07:13:01;;;;;;;0.00;0.00;;;16.10;99.90;;;;;;5075477;28;20045;-81
2022/09/10 07:15:27;;;;;;;0.00;0.00;;;16.10;99.90;;;;;;5075346;28;20080;-81
2022/09/10 07:17:53;;;;;;;0.00;0.00;;;16.10;99.90;;;;;;5075194;28;20103;-81
2022/09/10 07:20:22;;;;;;;0.65;0.20;;;16.20;99.90;;;;;;5058912;28;20164;-81
2022/09/10 07:22:51;;;;;;;0.00;0.00;;;16.20;99.90;;;;;;5075342;28;20055;-81
2022/09/10 07:25:17;;;;;;;0.08;0.00;;;16.20;99.90;;;;;;5058659;28;20056;-81
2022/09/10 07:27:43;;;;;;;0.10;0.10;;;16.30;99.90;;;;;;5058285;28;20044;-81
2022/09/10 07:30:10;;;;;;;2.28;0.57;;;16.30;99.90;;;;;;5075085;28;20108;-81
2022/09/10 07:32:35;;;;;;;0.00;0.00;;;16.30;99.90;;;;;;5059265;28;20107;-81
2022/09/10 07:35:01;;;;;;;0.15;0.00;;;16.40;99.90;;;;;;5075155;28;20425;-81
2022/09/10 07:37:26;;;;;;;0.00;0.00;;;16.40;99.90;;;;;;5058301;28;20133;-81
2022/09/10 07:39:52;;;;;;;0.03;0.03;;;16.50;99.90;;;;;;5075200;28;20127;-81
2022/09/10 07:42:18;;;;;;;0.55;0.10;;;16.60;99.90;;;;;;5058460;28;20374;-81
2022/09/10 07:44:44;;;;;;;1.35;0.52;;;16.60;99.90;;;;;;5058406;28;20106;-82
2022/09/10 07:47:12;;;;;;;0.00;0.00;;;16.70;99.90;;;;;;5074909;28;20143;-81
2022/09/10 07:49:37;;;;;;;0.10;0.10;;;16.70;99.90;;;;;;5074861;28;20051;-81
2022/09/10 07:52:03;;;;;;;0.00;0.00;;;16.70;99.90;;;;;;5058132;28;20151;-81
2022/09/10 07:54:32;;;;;;;0.17;0.17;;;16.80;99.90;;;;;;5075216;28;20049;-80
2022/09/10 07:57:00;;;;;;;1.05;0.20;;;16.80;99.90;;;;;;5057513;28;20050;-81
2022/09/10 07:59:26;;;;;;;0.00;0.00;;;16.80;99.90;;;;;;5074980;28;20480;-81
2022/09/10 08:01:54;;;;;;;0.00;0.00;;;16.80;99.90;;;;;;5074485;28;20136;-81
2022/09/10 08:04:20;;;;;;;0.00;0.00;;;16.80;99.90;;;;;;5074800;28;20045;-80
2022/09/10 08:06:45;;;;;;;0.00;0.00;;;16.80;99.90;;;;;;5074422;28;20089;-81
2022/09/10 08:09:13;;;;;;;0.00;0.00;;;16.80;99.90;;;;;;5074553;28;20093;-81
2022/09/10 08:11:40;;;;;;;0.00;0.00;;;16.80;99.90;;;;;;5057586;28;20382;-81
2022/09/10 08:14:05;;;;;;;0.00;0.00;;;16.90;99.90;;;;;;5074545;28;20049;-81
2022/09/10 08:16:32;;;;;;;0.00;0.00;;;16.90;99.90;;;;;;5073860;28;20198;-81
2022/09/10 08:18:59;;;;;;;0.20;0.20;;;16.90;99.90;;;;;;5057540;28;20074;-81
2022/09/10 08:21:25;;;;;;;0.00;0.00;;;17.00;99.90;;;;;;5074524;28;20101;-81
2022/09/10 08:23:53;;;;;;;0.05;0.05;;;17.10;99.90;;;;;;5057821;28;20051;-81
2022/09/10 08:26:23;;;;;;;0.00;0.00;;;17.10;99.90;;;;;;5074134;28;20083;-81
2022/09/10 08:28:54;;;;;;;0.10;0.03;;;17.10;99.90;;;;;;5074440;28;20045;-81
2022/09/10 08:31:21;;;;;;;0.00;0.00;;;17.20;99.90;;;;;;5074083;28;20499;-81
2022/09/10 08:33:49;;;;;;;0.00;0.00;;;17.30;99.90;;;;;;5057224;28;20408;-80
2022/09/10 08:36:17;;;;;;;0.10;0.10;;;17.40;99.90;;;;;;5073899;28;20062;-81
2022/09/10 08:38:43;;;;;;;0.00;0.00;;;17.50;99.90;;;;;;5073740;28;20056;-81
2022/09/10 08:41:12;;;;;;;0.05;0.05;;;17.60;99.90;;;;;;5073445;28;20499;-80
2022/09/10 08:43:54;;;;;;;0.00;0.00;;;17.70;99.90;;;;;;5074249;28;20377;-81
2022/09/10 08:46:26;;;;;;;0.15;0.15;;;17.70;99.90;;;;;;5073755;28;20094;-80
2022/09/10 08:49:10;;;;;;;1.05;0.60;;;17.80;99.90;;;;;;5073640;28;20054;-80
2022/09/10 08:52:19;;;;;;;0.08;0.08;;;17.80;99.90;;;;;;5073095;28;20083;-80
2022/09/10 08:54:59;;;;;;;0.00;0.00;;;17.80;99.90;;;;;;5019830;28;20461;-80
2022/09/10 08:57:39;;;;;;;0.00;0.00;;;17.80;99.90;;;;;;5019111;28;20536;-80
2022/09/10 09:00:10;;;;;;;0.32;0.20;;;17.90;99.90;;;;;;5019420;28;20098;-80
2022/09/10 09:02:55;;;;;;;0.20;0.20;;;17.90;99.90;;;;;;5035695;28;20049;-80
2022/09/10 09:05:23;;;;;;;0.00;0.00;;;17.90;99.90;;;;;;5019494;28;20108;-81
2022/09/10 09:07:50;;;;;;;0.08;0.08;;;18.10;99.90;;;;;;5035286;28;20045;-80
2022/09/10 09:10:29;;;;;;;0.00;0.00;;;18.30;99.90;;;;;;5035842;28;20069;-80
2022/09/10 09:13:16;;;;;;;0.03;0.00;;;18.60;99.90;;;;;;5019377;28;20143;-80
2022/09/10 09:15:54;;;;;;;0.20;0.10;;;18.80;99.90;;;;;;5019436;28;20102;-81
2022/09/10 09:18:53;;;;;;;0.25;0.25;;;19.10;99.90;;;;;;5035625;28;20489;-80
2022/09/10 09:21:50;;;;;;;0.00;0.00;;;19.30;99.90;;;;;;5036017;28;20056;-80
2022/09/10 09:24:48;;;;;;;0.00;0.00;;;19.40;99.90;;;;;;5019037;28;20049;-81
2022/09/10 09:27:18;;;;;;;0.00;0.00;;;19.50;99.90;;;;;;4941184;28;20051;-80
2022/09/10 09:29:54;;;;;;;0.10;0.10;;;19.50;99.90;;;;;;4969851;28;20157;-81
2022/09/10 09:32:21;;;;;;;0.00;0.00;;;19.60;99.90;;;;;;4996291;28;20404;-81
2022/09/10 09:34:51;;;;;;;0.15;0.08;;;19.60;99.90;;;;;;4995943;28;20045;-80
2022/09/10 09:37:23;;;;;;;0.00;0.00;;;19.70;99.90;;;;;;4996141;28;20178;-81
2022/09/10 09:40:11;;;;;;;0.00;0.00;;;19.90;99.90;;;;;;4996419;28;20106;-82
2022/09/10 09:42:57;;;;;;;0.00;0.00;;;19.90;99.90;;;;;;4995920;28;20050;-80
2022/09/10 09:45:33;;;;;;;0.00;0.00;;;19.90;99.90;;;;;;4996094;28;20149;-81
2022/09/10 09:47:59;;;;;;;0.00;0.00;;;20.00;99.90;;;;;;4979728;28;20508;-81
2022/09/10 09:50:26;;;;;;;0.00;0.00;;;20.00;99.90;;;;;;4995347;28;20096;-81
2022/09/10 09:52:55;;;;;;;0.00;0.00;;;20.10;99.90;;;;;;4995351;28;20497;-81
2022/09/10 09:55:48;;;;;;;0.00;0.00;;;20.20;99.90;;;;;;4995943;28;20050;-81
2022/09/10 09:58:35;;;;;;;0.00;0.00;;;20.30;99.90;;;;;;4996115;28;20058;-81
2022/09/10 10:01:03;;;;;;;0.00;0.00;;;20.40;99.90;;;;;;4995486;28;20057;-81
2022/09/10 10:03:51;;;;;;;0.10;0.10;;;20.40;99.90;;;;;;5002706;28;20056;-81
2022/09/10 10:06:20;;;;;;;0.00;0.00;;;20.50;99.90;;;;;;5055960;28;20045;-81
2022/09/10 10:08:54;;;;;;;0.00;0.00;;;20.60;99.90;;;;;;5056240;28;20376;-81
2022/09/10 10:11:22;;;;;;;0.00;0.00;;;20.60;99.90;;;;;;5055717;28;20139;-81
2022/09/10 10:13:51;;;;;;;0.00;0.00;;;20.60;99.90;;;;;;5056269;28;20392;-81
2022/09/10 10:16:34;;;;;;;0.00;0.00;;;20.60;99.90;;;;;;5055910;28;20447;-81
2022/09/10 10:19:00;;;;;;;0.00;0.00;;;20.60;99.90;;;;;;5074563;28;20040;-81
2022/09/10 10:21:31;;;;;;;0.00;0.00;;;20.80;99.90;;;;;;5059962;28;20403;-81
2022/09/10 10:23:57;;;;;;;0.20;0.20;;;20.90;99.90;;;;;;5059858;28;20052;-81
2022/09/10 10:26:29;;;;;;;0.10;0.10;;;20.90;99.90;;;;;;5076632;28;20086;-80
2022/09/10 10:28:57;;;;;;;0.00;0.00;;;20.90;99.90;;;;;;5076692;28;20048;-81
2022/09/10 10:31:31;;;;;;;0.00;0.00;;;21.00;99.90;;;;;;5059537;28;20052;-80
2022/09/10 10:34:20;;;;;;;0.00;0.00;;;21.00;99.90;;;;;;5060032;28;20059;-80
2022/09/10 10:36:55;;;;;;;0.00;0.00;;;21.20;99.90;;;;;;5059720;28;20044;-80
2022/09/10 10:39:30;;;;;;;0.00;0.00;;;21.20;99.90;;;;;;5075962;28;20043;-80
2022/09/10 10:42:14;;;;;;;0.00;0.00;;;21.20;99.90;;;;;;5076567;28;20044;-80
2022/09/10 10:44:58;;;;;;;0.00;0.00;;;21.30;99.90;;;;;;5076370;28;20048;-80
2022/09/10 10:47:57;;;;;;;0.00;0.00;;;21.40;99.90;;;;;;5076285;28;20056;-79
2022/09/10 10:50:28;;;;;;;0.00;0.00;;;21.30;99.90;;;;;;5059851;28;20139;-80
2022/09/10 10:53:33;;;;;;;0.00;0.00;;;21.20;99.90;;;;;;5059081;28;20572;-80
2022/09/10 10:56:04;;;;;;;0.00;0.00;;;21.30;99.90;;;;;;5038306;28;20501;-80
2022/09/10 10:58:59;;;;;;;5.38;0.93;;;21.60;99.90;;;;;;5021981;28;20087;-80
2022/09/10 11:01:28;;;;;;;0.00;0.00;;;21.80;99.90;;;;;;4941031;29;20055;-80
2022/09/10 11:04:00;;;;;;;0.00;0.00;;;21.60;99.90;;;;;;4941133;29;20126;-80
2022/09/10 11:06:35;;;;;;;0.00;0.00;;;21.50;99.90;;;;;;4940717;29;20090;-80
2022/09/10 11:09:09;;;;;;;0.28;0.10;;;21.30;99.90;;;;;;4940952;29;20051;-80
2022/09/10 11:11:34;;;;;;;0.00;0.00;;;21.20;99.90;;;;;;4940704;29;20059;-80
2022/09/10 11:14:00;;;;;;;0.00;0.00;;;21.20;99.90;;;;;;4956884;29;20439;-80
2022/09/10 11:16:32;;;;;;;0.00;0.00;;;21.20;99.90;;;;;;4940608;29;20058;-80
2022/09/10 11:19:18;;;;;;;1.10;0.50;;;21.20;99.90;;;;;;4924776;29;20515;-81
2022/09/10 11:22:07;;;;;;;0.00;0.00;;;21.20;99.90;;;;;;4941035;29;20399;-80
2022/09/10 11:25:11;;;;;;;0.00;0.00;;;21.20;99.90;;;;;;4956096;28;20059;-80
2022/09/10 11:27:45;;;;;;;0.00;0.00;;;21.30;99.90;;;;;;4900281;29;20453;-80
2022/09/10 11:30:16;;;;;;;;;;;21.40;99.90;;;;;;4902522;29;20056;-80
2022/09/10 11:33:34;;;;;;;0.00;0.00;;;21.40;99.90;;;;;;4886626;29;19934;-80
2022/09/10 11:36:07;;;;;;;0.00;0.00;;;21.50;99.90;;;;;;4883541;29;20081;-80
2022/09/10 11:38:57;;;;;;;0.10;0.10;;;21.60;99.90;;;;;;4929655;29;20051;-80
2022/09/10 11:41:30;;;;;;;0.25;0.10;;;21.70;99.90;;;;;;4940694;29;20129;-80
2022/09/10 11:44:15;;;;;;;0.20;0.20;;;21.60;99.90;;;;;;4940254;29;20496;-81
2022/09/10 11:46:45;;;;;;;0.10;0.10;;;21.90;99.90;;;;;;4924692;29;20392;-81
2022/09/10 11:49:15;;;;;;;0.13;0.13;;;22.00;99.90;;;;;;4924015;29;20066;-81
2022/09/10 11:51:43;;;;;;;0.57;0.32;;;22.10;99.90;;;;;;4923799;29;20122;-81
2022/09/10 11:54:16;;;;;;;0.00;0.00;;;22.20;99.90;;;;;;4939766;29;20083;-81
2022/09/10 11:56:48;;;;;;;0.00;0.00;;;22.20;99.90;;;;;;4923730;29;20542;-81
2022/09/10 11:59:44;;;;;;;0.00;0.00;;;22.20;99.90;;;;;;4923768;29;20526;-81
2022/09/10 12:02:31;;;;;;;0.00;0.00;;;22.10;99.90;;;;;;4967599;28;20057;-81
2022/09/10 12:05:36;;;;;;;1.38;0.20;;;22.30;99.90;;;;;;4981533;28;20064;-81
2022/09/10 12:08:23;;;;;;;0.00;0.00;;;22.20;99.90;;;;;;5010938;28;20153;-81
2022/09/10 12:11:12;;;;;;;0.00;0.00;;;22.10;99.90;;;;;;5027811;28;20579;-81
2022/09/10 12:13:38;;;;;;;0.00;0.00;;;22.10;99.90;;;;;;5017951;28;20061;-81
2022/09/10 12:16:41;;;;;;;0.10;0.10;;;22.30;99.90;;;;;;5000590;28;20045;-81
2022/09/10 12:19:39;;;;;;;0.00;0.00;;;22.50;99.90;;;;;;5001425;28;20529;-81
2022/09/10 12:22:20;;;;;;;0.00;0.00;;;22.50;99.90;;;;;;5000743;28;20437;-81
2022/09/10 12:25:01;;;;;;;0.10;0.00;;;22.70;99.90;;;;;;5033432;28;20458;-81
2022/09/10 12:27:46;;;;;;;0.05;0.05;;;22.90;99.90;;;;;;5016816;28;20497;-81
2022/09/10 12:30:24;;;;;;;0.00;0.00;;;23.10;99.90;;;;;;5016894;28;20088;-81
2022/09/10 12:32:56;;;;;;;0.00;0.00;;;23.10;99.90;;;;;;5000502;28;20565;-81
2022/09/10 12:35:31;;;;;;;0.00;0.00;;;23.10;99.90;;;;;;4999798;28;20048;-81
2022/09/10 12:38:34;;;;;;;0.00;0.00;;;23.00;99.90;;;;;;5000076;28;20053;-81
2022/09/10 12:41:01;;;;;;;0.00;0.00;;;23.00;99.90;;;;;;5016534;28;20052;-81
2022/09/10 12:43:38;;;;;;;0.00;0.00;;;23.10;99.90;;;;;;4998903;28;20536;-81
2022/09/10 12:46:07;;;;;;;0.00;0.00;;;22.90;99.90;;;;;;5074092;28;20048;-81
2022/09/10 12:48:35;;;;;;;0.00;0.00;;;22.90;99.90;;;;;;5074146;28;20055;-81
2022/09/10 12:51:19;;;;;;;0.00;0.00;;;22.90;99.90;;;;;;5057127;28;20052;-82
2022/09/10 12:54:00;;;;;;;0.00;0.00;;;23.00;99.90;;;;;;5056580;28;20088;-81
2022/09/10 12:56:25;;;;;;;0.00;0.00;;;22.90;99.90;;;;;;5057319;28;20079;-81
2022/09/10 12:59:16;;;;;;;0.00;0.00;;;22.80;99.90;;;;;;5073794;28;20149;-81
2022/09/10 13:01:46;;;;;;;0.25;0.00;;;22.60;99.90;;;;;;5057524;28;20186;-81
2022/09/10 13:04:34;;;;;;;0.00;0.00;;;22.50;99.90;;;;;;5073524;28;20048;-81
2022/09/10 13:07:17;;;;;;;0.20;0.20;;;22.50;99.90;;;;;;5056874;28;20098;-81
2022/09/10 13:09:43;;;;;;;0.00;0.00;;;22.40;99.90;;;;;;5073255;28;20075;-82
2022/09/10 13:12:19;;;;;;;0.00;0.00;;;22.50;99.90;;;;;;5056800;28;20113;-81